METAR Data
IDs: Format: Raw Decoded Include TAF

Data at: 0823 UTC 20 Sep 2018

KEIR 200815Z AUTO 17005KT 10SM SCT022 29/25 A2997 RMK A01
KEIR 200755Z AUTO 16003KT 10SM FEW025 29/24 A2998 RMK A01
KEIR 200735Z AUTO 18005KT 10SM FEW025 29/24 A2998 RMK A01
KEIR 200715Z AUTO 16005KT 10SM SCT024 29/24 A2997 RMK A01
KEIR 200655Z AUTO 16005KT 10SM BKN024 29/24 A2997 RMK A01
KEIR 200635Z AUTO 15004KT 10SM FEW024 29/24 A2997 RMK A01
KEIR 200615Z AUTO 16006KT 10SM FEW024 29/25 A2997 RMK A01
KEIR 200555Z AUTO 16007KT 10SM CLR 29/25 A2997 RMK A01
KEIR 200535Z AUTO 15005KT 10SM FEW024 29/25 A2997 RMK A01
KEIR 200515Z AUTO 15003KT FEW024 29/25 A2998 RMK A01
KEIR 200455Z AUTO 16005KT 10SM CLR 29/25 A2998 RMK A01
KEIR 200435Z AUTO VRB03KT 10SM CLR 29/24 A2998 RMK A01
KEIR 200415Z AUTO VRB03KT 10SM CLR 29/24 A2998 RMK A01
KEIR 200355Z AUTO VRB04KT 10SM CLR 30/24 A2998 RMK A01
KEIR 200335Z AUTO 16004KT 10SM CLR 30/24 A2998 RMK A01
KEIR 200315Z AUTO 00000KT 10SM CLR 30/24 A2998 RMK A01
KEIR 200255Z AUTO 00000KT 10SM CLR 30/24 A2998 RMK A01
KEIR 200235Z AUTO 00000KT 10SM CLR 30/24 A2997 RMK A01
KEIR 200215Z AUTO 00000KT 10SM CLR 30/24 A2997 RMK A01
KEIR 200155Z AUTO 00000KT CLR 30/24 A2997 RMK A01
KEIR 200135Z AUTO 00000KT 10SM CLR 30/24 A2996 RMK A01
KEIR 200115Z AUTO 00000KT 10SM CLR 30/24 A2995 RMK A01
KEIR 200055Z AUTO 00000KT 10SM CLR 30/24 A2994 RMK A01
KEIR 200035Z AUTO 00000KT 10SM CLR 30/24 A2993 RMK A01
KEIR 200015Z AUTO VRB04KT 10SM CLR 30/24 A2993 RMK A01
KEIR 192355Z AUTO 00000KT 10SM CLR 30/24 A2993 RMK A01
KEIR 192335Z AUTO 00000KT 10SM CLR 31/25 A2993 RMK A01
KEIR 192315Z AUTO 00000KT 10SM CLR 31/24 A2993 RMK A01
KEIR 192255Z AUTO 00000KT 10SM CLR 31/25 A2993 RMK A01
KEIR 192235Z AUTO 00000KT 10SM CLR 31/25 A2993 RMK A01
KEIR 192215Z AUTO 00000KT 10SM FEW025 32/25 A2993 RMK A01
KEIR 192155Z AUTO 00000KT 10SM FEW025 32/25 A2993 RMK A01
KEIR 192135Z AUTO 00000KT 10SM SCT023 32/25 A2994 RMK A01
KEIR 192115Z AUTO 00000KT 10SM SCT024 32/25 A2994 RMK A01
KEIR 192055Z AUTO 00000KT 10SM FEW023 31/25 A2994 RMK A01
KEIR 192035Z AUTO 00000KT 10SM CLR 31/25 A2995 RMK A01
KEIR 192015Z AUTO 00000KT 10SM CLR 32/25 A2995 RMK A01
KEIR 191955Z AUTO 00000KT 10SM FEW026 31/25 A2996 RMK A01
KEIR 191935Z AUTO 00000KT 10SM SCT026 30/25 A2997 RMK A01
KEIR 191915Z AUTO 00000KT 10SM CLR 32/25 A2997 RMK A01
KEIR 191855Z AUTO 04003KT 10SM FEW027 31/24 A2998 RMK A01
KEIR 191835Z AUTO 01004KT 10SM FEW027 30/25 A2998 RMK A01
KEIR 191815Z AUTO 00000KT 10SM CLR 31/24 A2999 RMK A01
KEIR 191755Z AUTO 02004KT 10SM CLR 30/24 A3000 RMK A01
KEIR 191735Z AUTO 00000KT 10SM CLR 30/24 A3000 RMK A01
KEIR 191715Z AUTO 00000KT 10SM CLR 30/24 A3001 RMK A01
KEIR 191655Z AUTO 00000KT 10SM CLR 31/25 A3001 RMK A01
KEIR 191635Z AUTO 00000KT 10SM CLR 30/25 A3001 RMK A01
KEIR 191615Z AUTO 00000KT 10SM CLR 30/24 A3001 RMK A01
KEIR 191555Z AUTO 00000KT CLR 30/25 A3001 RMK A01
KEIR 191535Z AUTO 00000KT 10SM CLR 30/25 A3001 RMK A01
KEIR 191515Z AUTO 00000KT 10SM CLR 30/25 A3001 RMK A01
KEIR 191455Z AUTO 00000KT 10SM FEW022 FEW041 29/25 A3001 RMK A01
KEIR 191435Z AUTO 34004KT 10SM SCT022 BKN041 29/25 A3001 RMK A01
KEIR 191415Z AUTO 00000KT 10SM CLR 30/25 A3000 RMK A01
KEIR 191355Z AUTO 00000KT 10SM CLR 30/24 A2999 RMK A01
KEIR 191335Z AUTO 22005KT 10SM CLR 29/25 A2998 RMK A01
KEIR 191315Z AUTO 25003KT 10SM CLR 29/25 A2998 RMK A01
KEIR 191255Z AUTO 00000KT 10SM CLR 29/24 A2998 RMK A01
KEIR 191235Z AUTO 26003KT 10SM SCT020 29/25 A2998 RMK A01
KEIR 191215Z AUTO 25004KT 10SM BKN019 29/25 A2998 RMK A01
KEIR 191155Z AUTO 24003KT 10SM CLR 29/25 A2998 RMK A01
KEIR 191135Z AUTO 22003KT 10SM CLR 29/25 A2997 RMK A01
KEIR 191115Z AUTO 23004KT 10SM FEW018 29/25 A2997 RMK A01
KEIR 191055Z AUTO 21005KT 10SM FEW018 29/25 A2996 RMK A01
KEIR 191035Z AUTO 19005KT 10SM CLR 29/25 A2996 RMK A01
KEIR 191015Z AUTO 19005KT 10SM CLR 29/25 A2996 RMK A01
KEIR 190955Z AUTO 18005KT 10SM CLR 29/25 A2995 RMK A01
KEIR 190935Z AUTO 18003KT 10SM CLR 29/25 A2995 RMK A01
KEIR 190915Z AUTO 19005KT 10SM CLR 29/25 A2995 RMK A01
KEIR 190855Z AUTO VRB03KT 10SM CLR 29/25 A2995 RMK A01
KEIR 190835Z AUTO 18004KT 10SM CLR 29/25 A2995 RMK A01
KEIR 190815Z AUTO 18003KT 10SM CLR 29/25 A2995 RMK A01
KEIR 190755Z AUTO VRB03KT 10SM CLR 29/25 A2994 RMK A01
KEIR 190735Z AUTO 00000KT 10SM CLR 29/25 A2995 RMK A01
KEIR 190715Z AUTO 17004KT 10SM CLR 29/25 A2995 RMK A01
KEIR 190655Z AUTO VRB05KT 10SM CLR 29/25 A2995 RMK A01
KEIR 190635Z AUTO 16003KT 10SM CLR 29/25 A2995 RMK A01
KEIR 190615Z AUTO 16003KT 10SM CLR 29/25 A2995 RMK A01
KEIR 190555Z AUTO 16003KT 10SM CLR 29/25 A2995 RMK A01
KEIR 190535Z AUTO 16003KT 10SM CLR 29/25 A2995 RMK A01
KEIR 190515Z AUTO 17004KT 10SM CLR 29/25 A2996 RMK A01
KEIR 190455Z AUTO VRB04KT 10SM CLR 29/25 A2996 RMK A01
KEIR 190435Z AUTO 16003KT 10SM CLR 29/25 A2996 RMK A01
KEIR 190415Z AUTO 18005KT 10SM CLR 29/25 A2996 RMK A01
KEIR 190355Z AUTO 19004KT 10SM CLR 29/25 A2996 RMK A01
KEIR 190335Z AUTO 19005KT 10SM CLR 29/25 A2995 RMK A01
KEIR 190315Z AUTO 18004KT 10SM CLR 29/25 A2996 RMK A01
KEIR 190255Z AUTO 17004KT 10SM CLR 30/25 A2995 RMK A01
KEIR 190235Z AUTO 17004KT 10SM CLR 30/25 A2995 RMK A01
KEIR 190215Z AUTO 19005KT 10SM CLR 30/25 A2995 RMK A01
KEIR 190155Z AUTO 17004KT 10SM CLR 30/25 A2995 RMK A01
KEIR 190135Z AUTO 18004KT 10SM CLR 30/26 A2994 RMK A01
KEIR 190115Z AUTO 18005KT 10SM CLR 30/26 A2993 RMK A01
KEIR 190055Z AUTO 18004KT 10SM FEW033 30/26 A2993 RMK A01
KEIR 190035Z AUTO 16003KT 10SM SCT022 BKN034 BKN041 30/26 A2992 RMK A01
KEIR 190015Z AUTO 16004KT 10SM BKN022 BKN029 OVC037 30/26 A2993 RMK A01
KEIR 182355Z AUTO 16004KT 10SM BKN023 BKN029 OVC037 30/26 A2993 RMK A01
KEIR 182335Z AUTO 00000KT 10SM BKN023 OVC027 31/26 A2992 RMK A01
KEIR 182315Z AUTO 20004KT 10SM BKN023 BKN028 OVC049 30/26 A2992 RMK A01
KEIR 182255Z AUTO 23004KT 10SM SCT023 SCT029 BKN036 30/26 A2992 RMK A01
KEIR 182235Z AUTO 20005KT 10SM BKN025 BKN033 OVC040 31/26 A2992 RMK A01
KEIR 182215Z AUTO VRB03KT 10SM SCT026 BKN035 BKN041 31/25 A2992 RMK A01
KEIR 182155Z AUTO 00000KT 10SM FEW024 SCT037 32/25 A2992 RMK A01
KEIR 182135Z AUTO 00000KT 10SM SCT024 32/26 A2993 RMK A01
KEIR 182115Z AUTO 00000KT 10SM CLR 32/26 A2993 RMK A01
KEIR 182055Z AUTO 00000KT 10SM SCT023 SCT033 31/25 A2993 RMK A01
KEIR 182035Z AUTO 00000KT 10SM SCT023 SCT033 31/26 A2994 RMK A01